Home   Weather   Lithuania   Kaunas   Past weeks
Flag for Lithuania

Past Weather in Kaunas, Lithuania — Yesterday and Last 2 Weeks

Currently: 48 °F. Overcast. (Weather station: Kaunas, Lithuania). See more current weather

Past Weather in Kaunas — Graph

°F

Kaunas Temperature Yesterday

Maximum temperature yesterday: 57 °F (at 3:50 pm)
Minimum temperature yesterday: 36 °F (at 5:20 am)
Average temperature yesterday: 47 °F

High & Low Weather Summary for the Past Weeks

 TemperatureHumidityPressure
High68 °F (Sep 13, 12:50 pm)94% (Sep 13, 6:20 pm)30.36 "Hg (Sep 13, 6:20 pm)
Low34 °F (Sep 23, 6:20 am)45% (Sep 14, 3:50 pm)29.21 "Hg (Sep 24, 1:50 am)
Average49 °F81%29.96 "Hg
* Reported Sep 13 6:20 am — Sep 28 6:20 am, Kaunas. Weather by CustomWeather, © 2021

Note: Actual official high and low records may vary slightly from our data, if they occured in-between our weather recording intervals... More about our weather records

Kaunas Weather History for the Previous 24 Hours

Scroll right to see more
 ConditionsComfort  
Time TempWeatherWind HumidityBarometerVisibility
6:20 am
Tue, Sep 28
48 °FOvercast.6 mph87%30.33 "HgN/A
5:50 am48 °FOvercast.6 mph87%30.33 "HgN/A
5:20 am48 °FOvercast.6 mph87%30.33 "HgN/A
4:50 am48 °FOvercast.5 mph82%30.33 "HgN/A
4:20 am48 °FOvercast.5 mph82%30.33 "HgN/A
3:50 am48 °FOvercast.6 mph82%30.33 "HgN/A
3:20 am46 °FOvercast.6 mph87%30.33 "HgN/A
2:50 am48 °FOvercast.5 mph82%30.33 "HgN/A
2:20 am48 °FOvercast.6 mph82%30.33 "HgN/A
1:50 am48 °FOvercast.6 mph82%30.33 "HgN/A
1:20 am48 °FOvercast.5 mph82%30.33 "HgN/A
12:50 am48 °FOvercast.3 mph82%30.33 "HgN/A
12:20 am48 °FOvercast.6 mph82%30.33 "HgN/A
11:50 pm
Mon, Sep 27
48 °FOvercast.5 mph82%30.33 "HgN/A
11:20 pm48 °FOvercast.6 mph82%30.33 "HgN/A
10:50 pm48 °FOvercast.5 mph82%30.33 "HgN/A
10:20 pm48 °FOvercast.6 mph82%30.30 "HgN/A
9:50 pm46 °FOvercast.5 mph87%30.30 "HgN/A
9:20 pm46 °FOvercast.5 mph82%30.30 "HgN/A
8:50 pm48 °FPassing clouds.3 mph82%30.30 "HgN/A
8:20 pm48 °FOvercast.5 mph76%30.30 "HgN/A
7:50 pm52 °FOvercast.5 mph72%30.30 "HgN/A
7:20 pm52 °FOvercast.5 mph67%30.30 "HgN/A
6:50 pm54 °FOvercast.6 mph63%30.30 "HgN/A
6:20 pm54 °FOvercast.8 mph67%30.30 "HgN/A
5:50 pm54 °FOvercast.9 mph67%30.30 "HgN/A
5:20 pm55 °FBroken clouds.13 mph59%30.30 "HgN/A
4:50 pm57 °FPartly sunny.10 mph55%30.30 "HgN/A
4:20 pm55 °FPartly sunny.10 mph59%30.30 "HgN/A
3:50 pm57 °FPartly sunny.7 mph55%30.33 "HgN/A
3:20 pm55 °FScattered clouds.9 mph59%30.33 "HgN/A
2:50 pm55 °FScattered clouds.8 mph59%30.33 "HgN/A
2:20 pm55 °FScattered clouds.9 mph59%30.33 "HgN/A
1:50 pm54 °FPartly sunny.9 mph63%30.33 "HgN/A
1:20 pm54 °FPartly sunny.8 mph63%30.33 "HgN/A
12:50 pm54 °FPartly sunny.8 mph67%30.33 "HgN/A
12:20 pm55 °FPartly sunny.8 mph63%30.33 "HgN/A
11:50 am55 °FPassing clouds.8 mph63%30.36 "HgN/A
11:20 am54 °FPassing clouds.8 mph67%30.33 "HgN/A
10:50 am52 °FPassing clouds.7 mph72%30.33 "HgN/A
10:20 am50 °FPassing clouds.6 mph76%30.33 "HgN/A
9:50 am48 °FPassing clouds.7 mph82%30.33 "HgN/A
9:20 am45 °FSunny.5 mph87%30.33 "Hg10 mi
8:50 am43 °FSunny.5 mph87%30.33 "Hg10 mi
8:20 am39 °FFog.3 mph87%30.33 "HgN/A
7:50 am37 °FFog.5 mph93%30.33 "HgN/A
7:20 am37 °FFog.5 mph93%30.33 "HgN/A
Weather by CustomWeather, © 2021

See weather overview